createdAt,value
2019-05-11T00:00:48.462Z,92.78
2019-05-11T00:03:15.790Z,96.10
2019-05-11T00:05:43.015Z,100.12
2019-05-11T00:08:10.251Z,92.25
2019-05-11T00:10:37.518Z,97.22
2019-05-11T00:13:05.944Z,93.92
2019-05-11T00:15:33.319Z,119.02
2019-05-11T00:18:00.717Z,207.18
2019-05-11T00:20:28.001Z,133.80
2019-05-11T00:22:55.592Z,145.95
2019-05-11T00:25:24.564Z,146.32
2019-05-11T00:27:51.793Z,140.73
2019-05-11T00:30:19.037Z,182.60
2019-05-11T00:32:46.295Z,141.50
2019-05-11T00:35:13.621Z,150.42
2019-05-11T00:37:40.851Z,136.70
2019-05-11T00:40:14.487Z,163.18
2019-05-11T00:42:37.144Z,135.65
2019-05-11T00:45:05.112Z,117.60
2019-05-11T00:47:32.415Z,120.87
2019-05-11T00:49:59.639Z,123.47
2019-05-11T00:52:26.921Z,126.35
2019-05-11T00:54:54.228Z,119.22
2019-05-11T00:57:22.435Z,122.20
2019-05-11T00:59:49.663Z,106.75
2019-05-11T01:02:16.956Z,101.75
2019-05-11T01:04:44.191Z,105.37
2019-05-11T01:07:11.713Z,109.45
2019-05-11T01:09:38.974Z,87.90
2019-05-11T01:12:06.208Z,94.67
2019-05-11T01:14:33.567Z,93.95
2019-05-11T01:17:00.862Z,95.15
2019-05-11T01:19:28.273Z,79.80
2019-05-11T01:21:55.514Z,74.70
2019-05-11T01:24:23.225Z,75.60
2019-05-11T01:26:50.952Z,64.82
2019-05-11T01:29:18.210Z,64.50
2019-05-11T01:31:45.549Z,64.32
2019-05-11T01:34:12.791Z,66.00
2019-05-11T01:36:40.062Z,61.53
2019-05-11T01:39:07.401Z,62.03
2019-05-11T01:41:34.603Z,62.48
2019-05-11T01:44:01.846Z,63.45
2019-05-11T01:46:29.150Z,75.80
2019-05-11T01:48:56.380Z,108.57
2019-05-11T01:51:23.605Z,108.78
2019-05-11T01:53:51.172Z,101.25
2019-05-11T01:56:18.412Z,96.05
2019-05-11T01:58:45.629Z,90.28
2019-05-11T02:01:12.905Z,73.87
2019-05-11T02:03:40.153Z,71.75
2019-05-11T02:06:07.375Z,72.50
2019-05-11T02:08:34.677Z,61.63
2019-05-11T02:11:14.981Z,59.30
2019-05-11T02:13:31.489Z,59.35
2019-05-11T02:16:06.548Z,57.96
2019-05-11T02:18:33.770Z,57.25
2019-05-11T02:21:01.101Z,61.08
2019-05-11T02:23:28.383Z,66.67
2019-05-11T02:25:55.614Z,66.95
2019-05-11T02:28:23.088Z,69.07
2019-05-11T02:30:50.374Z,69.32
2019-05-11T02:33:17.611Z,71.72
2019-05-11T02:35:44.824Z,120.85
2019-05-11T02:38:12.147Z,90.95
2019-05-11T02:40:40.379Z,79.95
2019-05-11T02:43:07.654Z,76.57
2019-05-11T02:45:36.739Z,65.47
2019-05-11T02:48:04.002Z,69.07
2019-05-11T02:50:33.228Z,64.80
2019-05-11T02:53:00.890Z,83.30
2019-05-11T02:55:28.108Z,115.57
2019-05-11T02:57:55.367Z,58.98
2019-05-11T03:00:24.461Z,57.23
2019-05-11T03:02:51.709Z,54.33
2019-05-11T03:05:18.935Z,51.05
2019-05-11T03:07:46.236Z,51.88
2019-05-11T03:10:13.450Z,53.50
2019-05-11T03:12:40.696Z,47.30
2019-05-11T03:15:08.016Z,57.03
2019-05-11T03:17:35.256Z,50.45
2019-05-11T03:20:02.513Z,49.77
2019-05-11T03:22:29.865Z,49.03
2019-05-11T03:24:57.101Z,49.73
2019-05-11T03:27:24.308Z,58.95
2019-05-11T03:29:51.856Z,54.85
2019-05-11T03:32:19.097Z,57.13
2019-05-11T03:34:46.314Z,48.80
2019-05-11T03:37:13.582Z,50.12
2019-05-11T03:39:40.841Z,42.35
2019-05-11T03:42:14.464Z,47.75
2019-05-11T03:44:37.176Z,48.00
2019-05-11T03:47:04.470Z,42.08
2019-05-11T03:49:31.728Z,46.35
2019-05-11T03:52:00.699Z,45.23
2019-05-11T03:54:27.933Z,48.85
2019-05-11T03:56:56.147Z,49.58
2019-05-11T03:59:23.433Z,54.55
2019-05-11T04:01:50.668Z,52.90
2019-05-11T04:04:18.900Z,55.92
2019-05-11T04:06:46.197Z,52.10
2019-05-11T04:09:13.440Z,55.08
2019-05-11T04:11:40.793Z,56.88
2019-05-11T04:14:08.099Z,55.48
2019-05-11T04:16:36.331Z,61.92
2019-05-11T04:19:03.614Z,58.58
2019-05-11T04:21:30.875Z,79.45
2019-05-11T04:23:58.117Z,85.25
2019-05-11T04:26:25.375Z,87.80
2019-05-11T04:28:52.687Z,70.37
2019-05-11T04:31:20.207Z,64.77
2019-05-11T04:33:47.451Z,63.48
2019-05-11T04:36:14.710Z,60.52
2019-05-11T04:38:41.929Z,64.80
2019-05-11T04:41:09.170Z,65.00
2019-05-11T04:43:36.543Z,63.92
2019-05-11T04:46:03.753Z,61.75
2019-05-11T04:48:30.991Z,68.78
2019-05-11T04:50:58.307Z,63.45
2019-05-11T04:53:25.526Z,68.35
2019-05-11T04:55:52.752Z,74.42
2019-05-11T04:58:20.107Z,68.25
2019-05-11T05:00:47.358Z,69.37
2019-05-11T05:03:14.586Z,76.53
2019-05-11T05:05:41.918Z,77.87
2019-05-11T05:08:10.041Z,88.40
2019-05-11T05:10:37.370Z,84.25
2019-05-11T05:13:10.711Z,80.85
2019-05-11T05:15:33.744Z,89.75
2019-05-11T05:18:01.042Z,86.37
2019-05-11T05:20:29.135Z,84.65
2019-05-11T05:22:56.629Z,84.83
2019-05-11T05:25:23.946Z,76.47
2019-05-11T05:27:51.563Z,80.38
2019-05-11T05:30:18.791Z,77.12
2019-05-11T05:32:46.451Z,87.12
2019-05-11T05:35:13.740Z,85.95
2019-05-11T05:37:41.362Z,79.58
2019-05-11T05:40:08.577Z,85.72
2019-05-11T05:42:35.872Z,77.55
2019-05-11T05:45:04.296Z,74.50
2019-05-11T05:47:31.535Z,73.52
2019-05-11T05:49:58.816Z,72.08
2019-05-11T05:52:26.397Z,70.05
2019-05-11T05:54:53.960Z,77.62
2019-05-11T05:57:21.233Z,76.67
2019-05-11T05:59:49.482Z,113.00
2019-05-11T06:02:16.716Z,89.17
2019-05-11T06:04:43.996Z,82.40
2019-05-11T06:07:11.225Z,72.65
2019-05-11T06:09:38.472Z,76.53
2019-05-11T06:12:05.772Z,78.87
2019-05-11T06:14:33.000Z,72.78
2019-05-11T06:17:00.239Z,86.35
2019-05-11T06:19:27.532Z,96.42
2019-05-11T06:21:55.214Z,72.97
2019-05-11T06:24:22.430Z,71.62
2019-05-11T06:26:49.771Z,81.17
2019-05-11T06:29:16.993Z,77.27
2019-05-11T06:31:44.220Z,86.05
2019-05-11T06:34:13.165Z,81.95
2019-05-11T06:36:40.378Z,65.85
2019-05-11T06:39:07.953Z,68.20
2019-05-11T06:41:35.769Z,71.77
2019-05-11T06:44:03.892Z,58.60
2019-05-11T06:46:34.522Z,53.15
2019-05-11T06:49:00.246Z,57.10
2019-05-11T06:51:27.462Z,51.33
2019-05-11T06:53:54.759Z,54.83
2019-05-11T06:56:22.118Z,51.70
2019-05-11T06:58:49.424Z,50.63
2019-05-11T07:01:16.663Z,40.67
2019-05-11T07:03:43.962Z,43.63
2019-05-11T07:06:12.860Z,40.80
2019-05-11T07:08:40.103Z,37.25
2019-05-11T07:11:07.394Z,37.83
2019-05-11T07:13:34.672Z,41.20
2019-05-11T07:16:01.935Z,40.25
2019-05-11T07:18:29.261Z,36.33
2019-05-11T07:20:56.471Z,39.67
2019-05-11T07:23:23.724Z,34.88
2019-05-11T07:25:51.028Z,116.08
2019-05-11T07:28:18.273Z,33.02
2019-05-11T07:30:45.789Z,30.00
2019-05-11T07:33:13.056Z,29.65
2019-05-11T07:35:40.790Z,30.32
2019-05-11T07:38:08.402Z,32.35
2019-05-11T07:40:38.311Z,29.65
2019-05-11T07:43:09.014Z,35.05
2019-05-11T07:45:34.184Z,30.00
2019-05-11T07:48:01.442Z,29.95
2019-05-11T07:50:28.683Z,29.57
2019-05-11T07:52:58.684Z,28.20
2019-05-11T07:55:27.995Z,28.25
2019-05-11T07:57:54.696Z,28.60
2019-05-11T08:00:21.921Z,29.50
2019-05-11T08:02:50.707Z,47.98
2019-05-11T08:05:18.182Z,97.50
2019-05-11T08:07:47.946Z,248.05
2019-05-11T08:10:14.565Z,64.07
2019-05-11T08:12:41.788Z,36.33
2019-05-11T08:15:13.327Z,36.00
2019-05-11T08:17:38.215Z,43.00
2019-05-11T08:20:11.023Z,34.77
2019-05-11T08:22:39.706Z,35.00
2019-05-11T08:25:09.009Z,38.30
2019-05-11T08:27:37.846Z,32.67
2019-05-11T08:30:09.655Z,33.60
2019-05-11T08:32:38.666Z,35.43
2019-05-11T08:35:08.579Z,30.00
2019-05-11T08:37:39.203Z,24.63
2019-05-11T08:40:07.844Z,25.43
2019-05-11T08:42:37.669Z,37.38
2019-05-11T08:45:15.938Z,36.83
2019-05-11T08:47:33.515Z,28.98
2019-05-11T08:50:00.775Z,24.27
2019-05-11T08:52:28.289Z,25.50
2019-05-11T08:54:57.623Z,29.18
2019-05-11T08:57:25.021Z,18.10
2019-05-11T08:59:52.304Z,19.98
2019-05-11T09:02:19.552Z,32.17
2019-05-11T09:04:48.364Z,18.60
2019-05-11T09:07:18.278Z,22.10
2019-05-11T09:09:45.066Z,24.87
2019-05-11T09:12:12.394Z,17.80
2019-05-11T09:14:39.726Z,18.90
2019-05-11T09:17:07.839Z,17.23
2019-05-11T09:19:35.336Z,17.27
2019-05-11T09:22:03.287Z,18.15
2019-05-11T09:24:31.708Z,18.32
2019-05-11T09:26:58.968Z,16.55
2019-05-11T09:29:28.136Z,19.50
2019-05-11T09:31:57.627Z,16.82
2019-05-11T09:34:24.895Z,17.87
2019-05-11T09:36:53.405Z,20.95
2019-05-11T09:39:20.927Z,30.85
2019-05-11T09:41:48.853Z,14.95
2019-05-11T09:44:18.214Z,13.72
2019-05-11T09:46:47.634Z,15.75
2019-05-11T09:49:14.431Z,13.50
2019-05-11T09:51:41.791Z,16.05
2019-05-11T09:54:09.092Z,15.25
2019-05-11T09:56:38.261Z,17.27
2019-05-11T09:59:05.807Z,16.45
2019-05-11T10:01:33.248Z,15.32
2019-05-11T10:04:00.698Z,16.85
2019-05-11T10:06:28.289Z,16.93
2019-05-11T10:08:57.727Z,15.75
2019-05-11T10:11:24.747Z,18.00
2019-05-11T10:13:52.366Z,16.27
2019-05-11T10:16:19.589Z,20.43
2019-05-11T10:18:49.113Z,17.00
2019-05-11T10:21:18.547Z,19.20
2019-05-11T10:23:45.007Z,13.48
2019-05-11T10:26:12.235Z,14.33
2019-05-11T10:28:39.581Z,12.68
2019-05-11T10:31:09.345Z,9.20
2019-05-11T10:33:38.218Z,7.92
2019-05-11T10:36:07.921Z,5.62
2019-05-11T10:38:37.792Z,6.62
2019-05-11T10:41:05.674Z,22.63
2019-05-11T10:43:37.557Z,19.95
2019-05-11T10:46:16.117Z,12.05
2019-05-11T10:48:32.741Z,14.95
2019-05-11T10:51:00.562Z,11.97
2019-05-11T10:53:28.900Z,20.27
2019-05-11T10:55:58.185Z,14.25
2019-05-11T10:58:25.236Z,10.10
2019-05-11T11:00:52.908Z,14.03
2019-05-11T11:03:20.458Z,11.65
2019-05-11T11:05:50.020Z,10.70
2019-05-11T11:08:18.638Z,8.20
2019-05-11T11:10:48.183Z,6.45
2019-05-11T11:13:15.156Z,10.40
2019-05-11T11:15:42.897Z,6.10
2019-05-11T11:18:10.141Z,6.00
2019-05-11T11:20:38.427Z,7.12
2019-05-11T11:23:08.895Z,12.15
2019-05-11T11:25:37.611Z,11.10
2019-05-11T11:28:05.395Z,45.45
2019-05-11T11:30:32.789Z,12.13
2019-05-11T11:33:02.605Z,21.68
2019-05-11T11:35:33.273Z,11.55
2019-05-11T11:38:00.616Z,11.90
2019-05-11T11:40:28.864Z,8.93
2019-05-11T11:42:58.109Z,25.45
2019-05-11T11:45:25.541Z,16.87
2019-05-11T11:47:53.266Z,14.83
2019-05-11T11:50:22.392Z,6.58
2019-05-11T11:52:49.700Z,3.85
2019-05-11T11:55:18.550Z,4.20
2019-05-11T11:57:48.467Z,6.95
2019-05-11T12:00:15.224Z,4.87
2019-05-11T12:02:42.441Z,8.35
2019-05-11T12:05:09.748Z,5.00
2019-05-11T12:07:38.872Z,6.15
2019-05-11T12:10:08.123Z,6.40
2019-05-11T12:12:35.465Z,11.15
2019-05-11T12:15:03.316Z,6.28
2019-05-11T12:17:30.554Z,5.40
2019-05-11T12:19:58.598Z,8.15
2019-05-11T12:22:27.992Z,8.18
2019-05-11T12:24:55.393Z,6.28
2019-05-11T12:27:22.660Z,5.50
2019-05-11T12:29:49.897Z,5.37
2019-05-11T12:32:18.942Z,6.65
2019-05-11T12:34:48.188Z,9.63
2019-05-11T12:37:15.278Z,6.53
2019-05-11T12:39:42.521Z,7.30
2019-05-11T12:42:09.805Z,9.00
2019-05-11T12:44:38.767Z,15.88
2019-05-11T12:47:19.118Z,6.37
2019-05-11T12:49:36.498Z,4.90
2019-05-11T12:52:03.820Z,6.42
2019-05-11T12:54:33.937Z,4.83
2019-05-11T12:57:01.432Z,7.28
2019-05-11T12:59:28.639Z,9.18
2019-05-11T13:01:55.930Z,7.72
2019-05-11T13:04:23.199Z,7.67
2019-05-11T13:06:50.448Z,7.95
2019-05-11T13:09:18.405Z,7.33
2019-05-11T13:11:48.177Z,7.45
2019-05-11T13:14:15.623Z,8.68
2019-05-11T13:16:42.858Z,8.60
2019-05-11T13:19:10.133Z,17.67
2019-05-11T13:21:38.237Z,14.43
2019-05-11T13:24:08.288Z,11.05
2019-05-11T13:26:37.471Z,21.68
2019-05-11T13:29:04.465Z,13.83
2019-05-11T13:31:31.882Z,11.30
2019-05-11T13:33:59.351Z,12.50
2019-05-11T13:36:28.675Z,13.55
2019-05-11T13:38:55.966Z,13.18
2019-05-11T13:41:23.644Z,11.85
2019-05-11T13:43:51.897Z,12.85
2019-05-11T13:46:19.326Z,10.58
2019-05-11T13:48:47.637Z,16.25
2019-05-11T13:51:15.192Z,18.95
2019-05-11T13:53:42.393Z,12.03
2019-05-11T13:56:09.976Z,15.90
2019-05-11T13:58:38.136Z,12.28
2019-05-11T14:01:07.883Z,312.65
2019-05-11T14:03:34.746Z,23.45
2019-05-11T14:06:02.053Z,25.40
2019-05-11T14:08:29.328Z,11.90
2019-05-11T14:10:58.024Z,15.85
2019-05-11T14:13:25.459Z,17.60
2019-05-11T14:15:52.806Z,52.78
2019-05-11T14:18:20.125Z,17.87
2019-05-11T14:20:48.267Z,11.97
2019-05-11T14:23:18.163Z,20.60
2019-05-11T14:25:45.228Z,19.98
2019-05-11T14:28:12.519Z,57.58
2019-05-11T14:30:39.783Z,22.95
2019-05-11T14:33:08.865Z,19.95
2019-05-11T14:35:38.292Z,27.00
2019-05-11T14:38:05.198Z,22.85
2019-05-11T14:40:32.469Z,17.67
2019-05-11T14:42:59.755Z,17.17
2019-05-11T14:45:28.816Z,18.05
2019-05-11T14:47:58.271Z,21.70
2019-05-11T14:50:27.946Z,18.57
2019-05-11T14:52:54.622Z,14.47
2019-05-11T14:55:21.951Z,14.03
2019-05-11T14:57:49.180Z,16.82
2019-05-11T15:00:18.617Z,14.35
2019-05-11T15:02:45.569Z,15.95
2019-05-11T15:05:14.604Z,16.95
2019-05-11T15:07:41.850Z,17.98
2019-05-11T15:10:10.291Z,11.53
2019-05-11T15:12:38.015Z,12.20
2019-05-11T15:15:07.988Z,12.68
2019-05-11T15:17:36.016Z,11.15
2019-05-11T15:20:03.803Z,10.98
2019-05-11T15:25:20.725Z,8.75
2019-05-11T15:27:48.929Z,8.70
2019-05-11T15:30:18.197Z,9.93
2019-05-11T15:32:47.885Z,9.20
2019-05-11T15:35:14.701Z,10.35
2019-05-11T15:37:41.932Z,10.68
2019-05-11T15:40:18.966Z,24.05
2019-05-11T15:42:48.335Z,21.15
2019-05-11T15:45:15.677Z,62.40
2019-05-11T15:47:44.046Z,28.70
2019-05-11T15:50:13.296Z,16.80
2019-05-11T15:52:41.816Z,23.25
2019-05-11T15:55:09.133Z,28.12
2019-05-11T15:57:38.200Z,28.30
2019-05-11T16:00:05.409Z,36.30
2019-05-11T16:02:32.718Z,23.00
2019-05-11T16:05:00.107Z,15.83
2019-05-11T16:07:42.412Z,13.93
2019-05-11T16:12:51.648Z,18.57
2019-05-11T16:15:19.505Z,18.90
2019-05-11T16:17:53.588Z,12.50
2019-05-11T16:20:28.119Z,14.98
2019-05-11T16:23:00.046Z,14.05
2019-05-11T16:25:28.137Z,13.90
2019-05-11T16:28:03.920Z,20.80
2019-05-11T16:30:31.844Z,15.75
2019-05-11T16:32:59.494Z,12.78
2019-05-11T16:35:30.343Z,17.75
2019-05-11T16:38:01.240Z,16.52
2019-05-11T16:40:30.240Z,13.62
2019-05-11T16:43:00.218Z,13.08
2019-05-11T16:45:33.150Z,13.25
2019-05-11T16:48:04.529Z,17.77
2019-05-11T16:50:41.486Z,11.18
2019-05-11T16:53:11.178Z,12.37
2019-05-11T16:55:44.436Z,9.95
2019-05-11T16:58:19.651Z,12.55
2019-05-11T17:00:48.969Z,10.82
2019-05-11T17:03:16.811Z,13.30
2019-05-11T17:05:44.981Z,18.45
2019-05-11T17:08:15.286Z,16.93
2019-05-11T17:11:04.283Z,18.73
2019-05-11T17:13:34.136Z,21.95
2019-05-11T17:16:08.694Z,16.50
2019-05-11T17:18:36.419Z,16.90
2019-05-11T17:21:11.277Z,22.87
2019-05-11T17:26:29.730Z,36.15
2019-05-11T17:31:50.701Z,22.65
2019-05-11T17:34:20.687Z,20.55
2019-05-11T17:36:49.895Z,21.70
2019-05-11T17:39:18.823Z,22.52
2019-05-11T17:44:38.814Z,21.48
2019-05-11T17:47:08.294Z,32.60
2019-05-11T17:49:35.157Z,30.32
2019-05-11T17:52:02.741Z,38.25
2019-05-11T17:54:31.220Z,24.63
2019-05-11T17:56:58.647Z,25.80
2019-05-11T17:59:28.073Z,18.67
2019-05-11T18:01:55.046Z,17.62
2019-05-11T18:04:22.254Z,19.65
2019-05-11T18:06:49.536Z,20.50
2019-05-11T18:09:18.678Z,17.87
2019-05-11T18:11:48.118Z,18.85
2019-05-11T18:14:14.907Z,22.65
2019-05-11T18:16:42.245Z,19.85
2019-05-11T18:19:10.465Z,18.95
2019-05-11T18:21:38.732Z,23.83
2019-05-11T18:24:08.881Z,27.37
2019-05-11T18:26:37.608Z,23.95
2019-05-11T18:29:05.728Z,27.40
2019-05-11T18:31:33.009Z,26.33
2019-05-11T18:34:00.315Z,25.75
2019-05-11T18:36:28.931Z,28.83
2019-05-11T18:38:57.244Z,26.25
2019-05-11T18:41:25.495Z,29.05
2019-05-11T18:43:52.833Z,35.52
2019-05-11T18:46:20.145Z,53.25
2019-05-11T18:48:48.638Z,66.45
2019-05-11T18:51:16.495Z,68.07
2019-05-11T18:53:44.692Z,67.87
2019-05-11T18:56:11.946Z,63.45
2019-05-11T18:58:39.215Z,76.62
2019-05-11T19:01:07.570Z,90.03
2019-05-11T19:03:34.906Z,109.78
2019-05-11T19:06:02.147Z,113.08
2019-05-11T19:08:29.471Z,101.15
2019-05-11T19:10:57.977Z,89.20
2019-05-11T19:13:27.910Z,88.10
2019-05-11T19:15:54.961Z,84.75
2019-05-11T19:18:22.400Z,83.52
2019-05-11T19:20:49.643Z,75.75
2019-05-11T19:23:19.094Z,75.90
2019-05-11T19:25:47.861Z,68.72
2019-05-11T19:28:15.175Z,69.58
2019-05-11T19:30:42.562Z,72.42
2019-05-11T19:33:11.303Z,85.55
2019-05-11T19:35:38.689Z,98.87
2019-05-11T19:38:08.499Z,119.70
2019-05-11T19:40:38.356Z,114.45
2019-05-11T19:43:05.203Z,121.85
2019-05-11T19:45:34.386Z,129.55
2019-05-11T19:48:01.659Z,116.67
2019-05-11T19:50:29.365Z,111.03
2019-05-11T19:52:57.991Z,101.85
2019-05-11T19:55:28.563Z,94.77
2019-05-11T19:57:56.141Z,83.52
2019-05-11T20:00:23.420Z,81.85
2019-05-11T20:02:50.776Z,87.62
2019-05-11T20:05:19.189Z,81.90
2019-05-11T20:07:48.729Z,81.15
2019-05-11T20:10:15.542Z,78.62
2019-05-11T20:12:43.827Z,74.37
2019-05-11T20:15:11.249Z,69.60
2019-05-11T20:17:39.305Z,71.85
2019-05-11T20:20:08.882Z,68.25
2019-05-11T20:22:38.841Z,73.90
2019-05-11T20:25:05.719Z,72.95
2019-05-11T20:27:33.025Z,69.87
2019-05-11T20:30:00.272Z,75.55
2019-05-11T20:32:28.511Z,72.00
2019-05-11T20:34:57.855Z,66.15
2019-05-11T20:37:24.981Z,67.58
2019-05-11T20:39:52.353Z,60.78
2019-05-11T20:42:21.619Z,54.23
2019-05-11T20:44:48.858Z,52.85
2019-05-11T20:47:17.847Z,56.60
2019-05-11T20:49:45.241Z,50.33
2019-05-11T20:52:12.460Z,51.05
2019-05-11T20:54:39.709Z,49.77
2019-05-11T20:57:09.003Z,51.10
2019-05-11T20:59:38.158Z,51.15
2019-05-11T21:02:05.769Z,48.92
2019-05-11T21:04:33.081Z,55.75
2019-05-11T21:07:00.312Z,57.58
2019-05-11T21:09:28.923Z,59.08
2019-05-11T21:11:58.626Z,58.40
2019-05-11T21:14:25.469Z,55.88
2019-05-11T21:16:52.716Z,62.88
2019-05-11T21:19:23.100Z,59.25
2019-05-11T21:22:08.889Z,87.40
2019-05-11T21:27:50.727Z,86.22
2019-05-11T21:30:29.307Z,81.10
2019-05-11T21:38:52.024Z,52.38
2019-05-11T21:41:30.616Z,45.33
2019-05-11T21:44:01.384Z,48.20
2019-05-11T21:46:30.367Z,47.08
2019-05-11T21:49:01.509Z,45.65
2019-05-11T21:51:31.638Z,44.53
2019-05-11T21:53:59.126Z,54.73
2019-05-11T21:56:31.189Z,47.13
2019-05-11T21:59:07.782Z,57.43
2019-05-11T22:04:41.929Z,57.30
2019-05-11T22:07:28.623Z,49.00
2019-05-11T22:10:03.125Z,51.02
2019-05-11T22:12:39.846Z,56.35
2019-05-11T22:15:14.993Z,53.13
2019-05-11T22:17:48.528Z,53.58
2019-05-11T22:20:20.345Z,57.08
2019-05-11T22:23:02.924Z,52.00
2019-05-11T22:25:50.654Z,53.65
2019-05-11T22:28:31.964Z,58.58
2019-05-11T22:31:23.478Z,56.68
2019-05-11T22:36:48.525Z,56.42
2019-05-11T22:39:20.825Z,69.20
2019-05-11T22:41:54.965Z,59.23
2019-05-11T22:44:35.676Z,58.20
2019-05-11T22:47:20.601Z,56.42
2019-05-11T22:49:58.283Z,53.03
2019-05-11T22:52:50.752Z,49.85
2019-05-11T22:55:23.318Z,48.02
2019-05-11T22:58:02.299Z,50.67
2019-05-11T23:00:42.623Z,42.40
2019-05-11T23:03:22.875Z,55.33
2019-05-11T23:05:53.634Z,54.30
2019-05-11T23:08:27.282Z,53.75
2019-05-11T23:10:59.233Z,54.95
2019-05-11T23:13:29.515Z,54.63
2019-05-11T23:16:04.510Z,49.87
2019-05-11T23:18:35.718Z,60.83
2019-05-11T23:21:03.144Z,69.27
2019-05-11T23:23:37.031Z,64.62
2019-05-11T23:26:11.146Z,68.70
2019-05-11T23:28:42.840Z,74.10
2019-05-11T23:31:14.200Z,66.82
2019-05-11T23:33:43.771Z,64.95
2019-05-11T23:36:18.281Z,66.90
2019-05-11T23:38:48.928Z,64.72
2019-05-11T23:41:24.549Z,64.85
2019-05-11T23:43:54.319Z,60.65
2019-05-11T23:46:31.544Z,59.45
2019-05-11T23:49:10.626Z,55.15
2019-05-11T23:51:38.664Z,54.05
2019-05-11T23:54:18.573Z,48.08
2019-05-11T23:56:53.761Z,51.40
2019-05-11T23:59:23.151Z,51.35
